Terminal Aerodrome Forecast
Issued by NWS

Home | Current Version | Previous Version | Text Only | Print | Product List | Glossary On
Versions: 1 2 3 4 5 6 7 8 9 10 11 12 13 14
867
FTUS44 KOHX 221731
TAFCKV
TAF
KCKV 221731Z 2218/2318 10007KT 3SM -RA BR SCT015 OVC030
     FM222200 09014G23KT 4SM -SHRA OVC015
     FM230100 11018G28KT 3SM -SHRA SCT007 OVC015
     FM230800 11014G23KT 6SM -SHRA SCT007 OVC015=

USA.gov is the U.S. government's official web portal to all federal, state and local government web resources and services.